Time;durP1;ratioP1;P1;durP2;ratioP2;P2;SDS_P1;SDS_P2;PMS_P1;PMS_P2;Temp;Humidity;BMP_temperature;BMP_pressure;BME280_temperature;BME280_humidity;BME280_pressure;Samples;Min_cycle;Max_cycle;Signal;HPM_P1;HPM_P2
2022/03/14 04:00:58;;;;;;;0.80;0.77;;;9.70;84.00;;;;;;5838657;23;20588;-69
2022/03/14 04:03:25;;;;;;;0.90;0.77;;;9.90;82.70;;;;;;4917242;29;20437;-68
2022/03/14 04:05:52;;;;;;;0.80;0.70;;;9.90;82.80;;;;;;4917194;29;20448;-69
2022/03/14 04:08:19;;;;;;;0.80;0.60;;;9.90;82.50;;;;;;4917192;29;20496;-68
2022/03/14 04:10:54;;;;;;;0.80;0.60;;;10.20;82.20;;;;;;4917055;29;20555;-69
2022/03/14 04:13:22;;;;;;;0.80;0.60;;;10.30;81.10;;;;;;4918296;29;20799;-67
2022/03/14 04:15:51;;;;;;;0.80;0.60;;;10.40;80.80;;;;;;4917044;29;20455;-69
2022/03/14 04:18:19;;;;;;;0.80;0.70;;;10.40;81.00;;;;;;4917018;29;20563;-68
2022/03/14 04:20:47;;;;;;;0.80;0.70;;;10.30;80.80;;;;;;4916998;29;20477;-69
2022/03/14 04:23:14;;;;;;;0.80;0.60;;;10.10;81.00;;;;;;4917026;29;20452;-68
2022/03/14 04:25:40;;;;;;;0.80;0.60;;;10.00;81.50;;;;;;4916971;29;20540;-69
2022/03/14 04:28:07;;;;;;;0.80;0.60;;;10.00;81.40;;;;;;4916702;29;20948;-68
2022/03/14 04:30:34;;;;;;;0.80;0.60;;;10.00;81.90;;;;;;4916857;29;20460;-69
2022/03/14 04:33:01;;;;;;;0.80;0.50;;;9.90;81.00;;;;;;4916919;29;20457;-68
2022/03/14 04:35:29;;;;;;;0.80;0.50;;;9.80;81.70;;;;;;4916866;29;20465;-68
2022/03/14 04:37:57;;;;;;;0.80;0.70;;;9.80;81.90;;;;;;4920419;29;20512;-68
2022/03/14 04:40:24;;;;;;;0.80;0.50;;;9.90;81.90;;;;;;4920423;29;20452;-69
2022/03/14 04:42:50;;;;;;;0.80;0.60;;;10.00;80.80;;;;;;4920493;29;20874;-70
2022/03/14 04:45:17;;;;;;;0.80;0.60;;;10.00;81.30;;;;;;4920371;29;20460;-71
2022/03/14 04:47:44;;;;;;;0.80;0.50;;;9.80;81.00;;;;;;4920421;29;20512;-70
2022/03/14 04:50:11;;;;;;;0.80;0.60;;;9.50;82.30;;;;;;4920373;29;20500;-69
2022/03/14 04:52:39;;;;;;;0.80;0.60;;;9.60;82.20;;;;;;4920008;29;21007;-68
2022/03/14 04:55:06;;;;;;;0.80;0.50;;;9.70;81.90;;;;;;4920232;29;20457;-69
2022/03/14 04:57:33;;;;;;;0.80;0.60;;;9.70;81.20;;;;;;4920166;29;20494;-68
2022/03/14 04:59:59;;;;;;;0.80;0.60;;;9.70;80.40;;;;;;4920164;29;20456;-69
2022/03/14 05:02:26;;;;;;;0.80;0.60;;;9.70;81.00;;;;;;4919725;29;20518;-69
2022/03/14 05:04:53;;;;;;;0.80;0.53;;;9.90;80.60;;;;;;4920127;29;20457;-68
2022/03/14 05:07:20;;;;;;;0.80;0.60;;;10.10;80.10;;;;;;4919770;29;21019;-67
2022/03/14 05:09:48;;;;;;;0.80;0.60;;;10.10;80.20;;;;;;4919668;29;20940;-69
2022/03/14 05:12:15;;;;;;;0.80;0.60;;;9.90;80.30;;;;;;4919912;29;20563;-69
2022/03/14 05:14:42;;;;;;;0.80;0.60;;;9.90;80.40;;;;;;4919926;29;20829;-68
2022/03/14 05:17:09;;;;;;;0.80;0.60;;;10.00;80.20;;;;;;4919752;29;20532;-68
2022/03/14 05:19:36;;;;;;;0.80;0.60;;;10.10;79.50;;;;;;4919788;29;20551;-71
2022/03/14 05:22:03;;;;;;;0.80;0.50;;;10.00;79.80;;;;;;4919785;29;20476;-71
2022/03/14 05:24:30;;;;;;;0.80;0.60;;;10.00;79.60;;;;;;4919814;29;20512;-70
2022/03/14 05:26:58;;;;;;;0.80;0.60;;;10.00;79.70;;;;;;4919452;29;20452;-70
2022/03/14 05:29:25;;;;;;;0.80;0.50;;;10.10;79.30;;;;;;4919554;29;20448;-70
2022/03/14 05:31:51;;;;;;;0.80;0.60;;;10.00;79.30;;;;;;4919508;29;20528;-69
2022/03/14 05:34:18;;;;;;;0.80;0.60;;;9.90;79.60;;;;;;4919554;29;20452;-69
2022/03/14 05:36:45;;;;;;;0.80;0.60;;;10.00;79.70;;;;;;4919403;29;20453;-68
2022/03/14 05:39:11;;;;;;;0.80;0.50;;;10.10;79.30;;;;;;4919475;29;20460;-68
2022/03/14 05:41:38;;;;;;;0.80;0.50;;;10.10;78.70;;;;;;4919337;29;20524;-69
2022/03/14 05:44:06;;;;;;;0.80;0.50;;;10.00;79.70;;;;;;4919378;29;20504;-69
2022/03/14 05:46:33;;;;;;;0.80;0.50;;;9.80;79.70;;;;;;4918984;29;20452;-69
2022/03/14 05:48:59;;;;;;;0.80;0.60;;;9.80;80.20;;;;;;4918942;29;21012;-68
2022/03/14 05:51:26;;;;;;;0.80;0.50;;;9.80;80.10;;;;;;4918869;29;20984;-69
2022/03/14 05:53:53;;;;;;;0.80;0.50;;;9.80;80.10;;;;;;4919282;29;20500;-68
2022/03/14 05:56:19;;;;;;;0.80;0.60;;;9.90;79.50;;;;;;4919204;29;20500;-69
2022/03/14 05:58:46;;;;;;;0.80;0.60;;;9.70;79.80;;;;;;4919118;29;20492;-69
2022/03/14 06:01:14;;;;;;;0.80;0.53;;;9.70;79.90;;;;;;4918879;29;20552;-70
2022/03/14 06:03:41;;;;;;;0.80;0.60;;;9.70;80.30;;;;;;4919062;29;20528;-68
2022/03/14 06:06:08;;;;;;;0.80;0.60;;;9.80;80.30;;;;;;4919020;29;20464;-68
2022/03/14 06:08:34;;;;;;;0.80;0.60;;;9.90;79.90;;;;;;4918646;29;20508;-68
2022/03/14 06:11:07;;;;;;;0.80;0.50;;;10.00;79.20;;;;;;4918754;29;20473;-69
2022/03/14 06:13:33;;;;;;;0.80;0.50;;;10.00;79.10;;;;;;4918776;29;20473;-70
2022/03/14 06:16:00;;;;;;;0.80;0.60;;;10.10;78.70;;;;;;4918758;29;20448;-68
2022/03/14 06:18:29;;;;;;;0.80;0.50;;;10.20;78.70;;;;;;4918654;29;20544;-69
2022/03/14 06:20:56;;;;;;;0.80;0.60;;;10.10;78.60;;;;;;4918688;29;20521;-70
2022/03/14 06:23:22;;;;;;;0.80;0.50;;;10.00;78.40;;;;;;4918669;29;20448;-69
2022/03/14 06:25:49;;;;;;;0.80;0.50;;;10.20;78.40;;;;;;4918636;29;20452;-69
2022/03/14 06:28:16;;;;;;;1.00;0.60;;;10.30;77.70;;;;;;4918600;29;20449;-69
2022/03/14 06:30:43;;;;;;;0.80;0.50;;;10.30;77.30;;;;;;4918441;29;20885;-70
2022/03/14 06:33:11;;;;;;;0.80;0.50;;;10.70;76.80;;;;;;4918520;29;20452;-69
2022/03/14 06:35:40;;;;;;;0.80;0.50;;;11.00;75.60;;;;;;4918412;29;20516;-69
2022/03/14 06:38:07;;;;;;;0.80;0.60;;;10.90;74.50;;;;;;4918342;29;20488;-70
2022/03/14 06:40:34;;;;;;;0.80;0.50;;;11.00;74.50;;;;;;4918335;29;20552;-69
2022/03/14 06:43:00;;;;;;;0.80;0.60;;;11.00;74.70;;;;;;4918368;29;20996;-69
2022/03/14 06:45:29;;;;;;;0.80;0.60;;;11.00;74.40;;;;;;4919104;29;20441;-69
2022/03/14 06:47:56;;;;;;;0.80;0.50;;;11.00;74.30;;;;;;4918264;29;21051;-69
2022/03/14 06:50:23;;;;;;;0.80;0.60;;;10.70;74.60;;;;;;4918405;29;20455;-69
2022/03/14 06:52:51;;;;;;;0.80;0.60;;;10.90;74.80;;;;;;4918579;29;20453;-68
2022/03/14 06:55:18;;;;;;;0.80;0.50;;;11.20;73.60;;;;;;4918559;29;20465;-69
2022/03/14 06:57:45;;;;;;;0.80;0.50;;;11.30;72.80;;;;;;4918622;29;20489;-69
2022/03/14 07:00:12;;;;;;;0.80;0.50;;;11.80;73.30;;;;;;4917459;29;20457;-69
2022/03/14 07:02:40;;;;;;;0.80;0.50;;;13.70;69.30;;;;;;4931438;29;20475;-79
2022/03/14 07:05:13;;;;;;;0.80;0.50;;;16.10;62.60;;;;;;4941726;29;20429;-71
2022/03/14 07:07:39;;;;;;;0.80;0.50;;;18.20;56.50;;;;;;4920949;29;20496;-73
2022/03/14 07:10:10;;;;;;;0.80;0.50;;;20.50;51.70;;;;;;4918393;29;20460;-74
2022/03/14 07:12:44;;;;;;;0.80;0.50;;;21.70;48.80;;;;;;4918244;29;20572;-72
2022/03/14 07:15:11;;;;;;;0.80;0.50;;;23.00;45.50;;;;;;4918722;29;20440;-73
2022/03/14 07:17:38;;;;;;;0.80;0.50;;;24.20;43.00;;;;;;4918229;29;21048;-71
2022/03/14 07:20:05;;;;;;;0.80;0.50;;;24.10;42.80;;;;;;4917691;29;20464;-72
2022/03/14 07:22:37;;;;;;;0.80;0.50;;;24.40;42.00;;;;;;4917643;29;20481;-71
2022/03/14 07:25:06;;;;;;;0.80;0.50;;;24.60;43.20;;;;;;4917776;29;20803;-72
2022/03/14 07:27:34;;;;;;;0.80;0.50;;;25.30;41.00;;;;;;4917324;29;20508;-71
2022/03/14 07:30:01;;;;;;;0.80;0.60;;;26.30;39.30;;;;;;4917240;29;20802;-72
2022/03/14 07:32:27;;;;;;;0.80;0.50;;;25.50;40.00;;;;;;4917526;29;20473;-71
2022/03/14 07:34:54;;;;;;;0.80;0.50;;;24.30;40.50;;;;;;4917144;29;20868;-70
2022/03/14 07:37:21;;;;;;;0.80;0.50;;;23.40;43.30;;;;;;4917174;29;20944;-70
2022/03/14 07:39:47;;;;;;;0.80;0.50;;;23.50;42.40;;;;;;4917520;29;20457;-72
2022/03/14 07:42:15;;;;;;;0.80;0.50;;;23.30;43.60;;;;;;4917306;29;20469;-72
2022/03/14 07:44:43;;;;;;;0.80;0.50;;;22.90;43.60;;;;;;4917040;29;20886;-71
2022/03/14 07:47:13;;;;;;;0.80;0.50;;;22.30;44.50;;;;;;4917318;29;20512;-71
2022/03/14 07:49:40;;;;;;;0.80;0.50;;;21.50;46.00;;;;;;4917070;29;20783;-71
2022/03/14 07:52:07;;;;;;;0.80;0.50;;;20.90;47.80;;;;;;4917284;29;20552;-71
2022/03/14 07:54:34;;;;;;;0.80;0.50;;;20.00;48.40;;;;;;4917308;29;20535;-70
2022/03/14 07:57:01;;;;;;;0.80;0.50;;;18.10;51.70;;;;;;4917192;29;20456;-71
2022/03/14 07:59:27;;;;;;;0.90;0.60;;;16.90;54.60;;;;;;4917119;29;20539;-70
2022/03/14 08:01:55;;;;;;;0.80;0.50;;;15.80;56.00;;;;;;4916840;29;20540;-70
2022/03/14 08:04:22;;;;;;;0.80;0.50;;;15.50;57.80;;;;;;4917014;29;20460;-70
2022/03/14 08:06:49;;;;;;;0.90;0.50;;;15.10;58.50;;;;;;4917119;29;20497;-70
2022/03/14 08:09:21;;;;;;;0.80;0.50;;;14.20;59.60;;;;;;4917211;29;20540;-70
2022/03/14 08:11:47;;;;;;;0.80;0.60;;;13.90;62.30;;;;;;4920831;29;20480;-70
2022/03/14 08:14:14;;;;;;;0.80;0.50;;;13.80;62.50;;;;;;4921093;29;20460;-70
2022/03/14 08:16:41;;;;;;;0.80;0.60;;;13.30;61.80;;;;;;4920669;29;20948;-70
2022/03/14 08:19:09;;;;;;;0.80;0.60;;;13.10;63.00;;;;;;4920826;29;20544;-69
2022/03/14 08:21:35;;;;;;;0.90;0.60;;;12.70;63.30;;;;;;4920796;29;20472;-70
2022/03/14 08:24:02;;;;;;;0.80;0.60;;;12.80;63.80;;;;;;4920830;29;20449;-70
2022/03/14 08:26:28;;;;;;;0.80;0.50;;;12.90;64.50;;;;;;4920765;29;20452;-70
2022/03/14 08:28:55;;;;;;;0.80;0.60;;;13.30;63.60;;;;;;4920754;29;20453;-70
2022/03/14 08:31:22;;;;;;;0.80;0.60;;;13.10;62.30;;;;;;4920650;29;20531;-70
2022/03/14 08:33:50;;;;;;;0.80;0.60;;;12.90;63.70;;;;;;4920801;29;20460;-70
2022/03/14 08:36:20;;;;;;;0.90;0.60;;;13.00;63.00;;;;;;4920615;29;20463;-69
2022/03/14 08:38:47;;;;;;;0.80;0.60;;;12.50;63.20;;;;;;4921004;29;20559;-72
2022/03/14 08:41:15;;;;;;;1.07;0.70;;;11.30;65.40;;;;;;4921173;29;20483;-73
2022/03/14 08:43:42;;;;;;;0.80;0.60;;;10.90;68.40;;;;;;4921456;29;20520;-72
2022/03/14 08:46:09;;;;;;;0.90;0.60;;;10.90;68.50;;;;;;4921457;29;20502;-72
2022/03/14 08:48:36;;;;;;;0.90;0.70;;;10.80;67.90;;;;;;4921929;29;20504;-72
2022/03/14 08:51:02;;;;;;;1.20;0.60;;;10.70;67.70;;;;;;4921245;29;20481;-72
2022/03/14 08:53:31;;;;;;;0.80;0.60;;;10.70;67.80;;;;;;4920431;29;20452;-73
2022/03/14 08:55:58;;;;;;;1.10;0.63;;;10.80;67.30;;;;;;4920569;29;20460;-73
2022/03/14 08:58:25;;;;;;;0.90;0.60;;;11.10;67.30;;;;;;4920034;29;20580;-72
2022/03/14 09:00:52;;;;;;;0.80;0.57;;;11.60;66.40;;;;;;4919906;29;20472;-73
2022/03/14 09:03:18;;;;;;;0.90;0.60;;;12.10;64.20;;;;;;4920066;29;20524;-71
2022/03/14 09:05:46;;;;;;;1.10;0.60;;;12.20;64.50;;;;;;4920165;29;20511;-73
2022/03/14 09:08:13;;;;;;;1.20;0.70;;;12.00;64.20;;;;;;4919776;29;20449;-73
2022/03/14 09:10:42;;;;;;;0.90;0.60;;;12.20;63.70;;;;;;4919524;29;20933;-72
2022/03/14 09:13:08;;;;;;;0.90;0.60;;;12.40;62.50;;;;;;4919667;29;20996;-73
2022/03/14 09:15:36;;;;;;;0.80;0.63;;;12.40;60.30;;;;;;4919747;29;20460;-72
2022/03/14 09:18:03;;;;;;;0.80;0.60;;;12.50;60.10;;;;;;4919651;29;20485;-73
2022/03/14 09:20:31;;;;;;;0.80;0.60;;;12.50;59.60;;;;;;4919808;29;20499;-73
2022/03/14 09:22:58;;;;;;;0.90;0.67;;;12.60;58.80;;;;;;4919134;29;20453;-73
2022/03/14 09:25:25;;;;;;;1.00;0.70;;;12.80;60.20;;;;;;4919428;29;20952;-72
2022/03/14 09:27:54;;;;;;;0.90;0.70;;;12.70;58.90;;;;;;4919489;29;20971;-72
2022/03/14 09:30:22;;;;;;;0.90;0.60;;;12.60;58.50;;;;;;4919525;29;20464;-72
2022/03/14 09:32:49;;;;;;;1.43;0.60;;;12.40;58.30;;;;;;4919567;29;20489;-72
2022/03/14 09:35:17;;;;;;;1.00;0.70;;;12.40;58.60;;;;;;4919636;29;20504;-71
2022/03/14 09:37:44;;;;;;;0.90;0.60;;;12.30;59.40;;;;;;4919708;29;20834;-72
2022/03/14 09:40:13;;;;;;;1.17;0.80;;;12.50;60.00;;;;;;4920293;29;20477;-72
2022/03/14 09:42:42;;;;;;;1.00;0.70;;;12.50;59.00;;;;;;4919415;29;20476;-73
2022/03/14 09:45:14;;;;;;;0.80;0.70;;;12.60;61.00;;;;;;4920008;29;20456;-71
2022/03/14 09:47:43;;;;;;;0.90;0.70;;;12.50;58.60;;;;;;4919346;29;20555;-70
2022/03/14 09:50:12;;;;;;;1.03;0.70;;;12.00;58.80;;;;;;4919269;29;20453;-72
2022/03/14 09:52:41;;;;;;;0.80;0.60;;;12.00;59.20;;;;;;4919070;29;20511;-72
2022/03/14 09:55:09;;;;;;;0.80;0.60;;;12.10;61.20;;;;;;4919044;29;20445;-71
2022/03/14 09:57:38;;;;;;;0.80;0.60;;;12.40;60.60;;;;;;4919130;29;20453;-72
2022/03/14 10:00:06;;;;;;;1.00;0.60;;;12.70;59.70;;;;;;4918863;29;20484;-74
2022/03/14 10:02:37;;;;;;;0.90;0.70;;;12.60;57.30;;;;;;4918471;29;20587;-72
2022/03/14 10:05:07;;;;;;;0.97;0.60;;;12.70;60.10;;;;;;4918849;29;20441;-71
2022/03/14 10:07:34;;;;;;;0.90;0.60;;;13.00;57.40;;;;;;4919400;29;20457;-72
2022/03/14 10:10:00;;;;;;;0.80;0.53;;;13.00;58.30;;;;;;4919293;29;20491;-72
2022/03/14 10:12:27;;;;;;;0.93;0.60;;;12.90;57.80;;;;;;4919157;29;20473;-72
2022/03/14 10:14:54;;;;;;;0.80;0.60;;;12.80;58.40;;;;;;5032265;23;20508;-75
2022/03/14 10:17:20;;;;;;;0.80;0.60;;;13.00;59.00;;;;;;4918836;29;20456;-76
2022/03/14 10:19:56;;;;;;;0.90;0.60;;;12.90;57.20;;;;;;4918898;29;20484;-77
2022/03/14 10:22:23;;;;;;;0.90;0.60;;;12.70;59.40;;;;;;4919113;29;20448;-76
2022/03/14 10:24:54;;;;;;;0.80;0.60;;;12.90;59.90;;;;;;4918475;29;20850;-74
2022/03/14 10:27:21;;;;;;;0.90;0.60;;;12.80;57.60;;;;;;4919011;29;20877;-74
2022/03/14 10:29:49;;;;;;;0.90;0.60;;;12.90;58.70;;;;;;4919442;29;20448;-75
2022/03/14 10:32:29;;;;;;;0.90;0.60;;;13.10;57.40;;;;;;4918819;29;20834;-74
2022/03/14 10:34:59;;;;;;;0.90;0.60;;;13.00;55.90;;;;;;4917607;29;20472;-74
2022/03/14 10:37:28;;;;;;;0.90;0.60;;;13.10;57.60;;;;;;4918530;29;20453;-73
2022/03/14 10:39:59;;;;;;;0.80;0.53;;;13.20;55.40;;;;;;4918711;29;20495;-74
2022/03/14 10:42:27;;;;;;;0.90;0.60;;;13.10;55.90;;;;;;4918576;29;20527;-75
2022/03/14 10:44:55;;;;;;;0.90;0.60;;;13.20;55.40;;;;;;4918608;29;20535;-74
2022/03/14 10:47:25;;;;;;;1.00;0.50;;;13.30;53.70;;;;;;4918878;29;20455;-75
2022/03/14 10:49:52;;;;;;;0.80;0.53;;;13.40;54.30;;;;;;4918745;29;20496;-76
2022/03/14 10:52:21;;;;;;;1.20;0.70;;;13.50;54.10;;;;;;4918864;29;20463;-77
2022/03/14 10:54:49;;;;;;;0.80;0.60;;;13.60;53.20;;;;;;4918903;29;20473;-76
2022/03/14 10:57:19;;;;;;;0.90;0.67;;;13.60;55.00;;;;;;4918571;29;20460;-76
2022/03/14 10:59:47;;;;;;;0.80;0.60;;;13.60;53.40;;;;;;4918883;29;20890;-76
2022/03/14 11:02:17;;;;;;;1.20;0.60;;;13.60;53.40;;;;;;4918064;29;20810;-74
2022/03/14 11:04:46;;;;;;;0.80;0.60;;;13.70;54.00;;;;;;4918189;29;20557;-75
2022/03/14 11:07:14;;;;;;;0.80;0.60;;;13.60;53.30;;;;;;4918145;29;20489;-76
2022/03/14 11:09:44;;;;;;;0.80;0.50;;;13.50;53.00;;;;;;4917821;29;20453;-76
2022/03/14 11:12:13;;;;;;;0.87;0.60;;;13.40;52.80;;;;;;4917693;29;20488;-76
2022/03/14 11:14:40;;;;;;;0.80;0.60;;;13.50;53.20;;;;;;4917381;29;20491;-75
2022/03/14 11:17:19;;;;;;;0.90;0.60;;;13.70;52.90;;;;;;4917854;29;20456;-75
2022/03/14 11:19:46;;;;;;;0.90;0.60;;;14.00;51.60;;;;;;4917774;29;20536;-77
2022/03/14 11:22:15;;;;;;;0.90;0.60;;;14.30;53.60;;;;;;4917739;29;20448;-77
2022/03/14 11:24:44;;;;;;;0.90;0.60;;;14.20;52.40;;;;;;4917509;29;20473;-76
2022/03/14 11:27:18;;;;;;;0.80;0.60;;;14.40;52.10;;;;;;4917575;29;20452;-76
2022/03/14 11:29:46;;;;;;;0.90;0.60;;;14.50;52.10;;;;;;4918380;29;20452;-75
2022/03/14 11:32:15;;;;;;;0.87;0.60;;;14.60;51.50;;;;;;4917555;29;20457;-76
2022/03/14 11:34:42;;;;;;;0.80;0.60;;;14.40;51.50;;;;;;4917058;29;20858;-75
2022/03/14 11:37:10;;;;;;;0.80;0.60;;;14.60;51.30;;;;;;4917502;29;20513;-76
2022/03/14 11:39:37;;;;;;;0.80;0.60;;;14.90;51.10;;;;;;4917336;29;20484;-76
2022/03/14 11:42:07;;;;;;;0.80;0.50;;;15.00;52.00;;;;;;4917385;29;20456;-76
2022/03/14 11:44:35;;;;;;;0.90;0.63;;;15.10;50.40;;;;;;4916986;29;20816;-77
2022/03/14 11:47:03;;;;;;;0.80;0.60;;;14.80;50.80;;;;;;4917757;29;20453;-77
2022/03/14 11:49:31;;;;;;;0.80;0.60;;;15.00;50.50;;;;;;4917568;29;20460;-77
2022/03/14 11:52:10;;;;;;;0.80;0.53;;;14.90;49.70;;;;;;4917634;29;20460;-77
2022/03/14 11:54:40;;;;;;;0.90;0.70;;;15.00;49.80;;;;;;4917539;29;20465;-77
2022/03/14 11:57:09;;;;;;;0.90;0.60;;;14.80;51.10;;;;;;4919008;29;20439;-77
2022/03/14 11:59:37;;;;;;;0.80;0.60;;;15.30;50.30;;;;;;4918009;29;20859;-77
2022/03/14 12:02:06;;;;;;;1.00;0.60;;;15.60;49.00;;;;;;4917717;29;20945;-77
2022/03/14 12:04:35;;;;;;;1.37;0.60;;;15.70;47.80;;;;;;4917891;29;20481;-78
2022/03/14 12:07:10;;;;;;;0.80;0.60;;;15.80;48.60;;;;;;4918980;29;20463;-77
2022/03/14 12:09:48;;;;;;;0.80;0.60;;;16.10;48.10;;;;;;4919519;29;20432;-75
2022/03/14 12:12:33;;;;;;;1.10;0.73;;;16.50;47.40;;;;;;4920010;29;20437;-80
2022/03/14 12:15:03;;;;;;;0.80;0.60;;;16.70;46.70;;;;;;4918142;29;20812;-77
2022/03/14 12:17:33;;;;;;;0.90;0.50;;;16.60;46.00;;;;;;4918789;29;20448;-77
2022/03/14 12:20:03;;;;;;;0.80;0.50;;;16.40;46.40;;;;;;4918503;29;20497;-77
2022/03/14 12:22:46;;;;;;;1.00;0.70;;;16.00;46.20;;;;;;4917973;29;20457;-76
2022/03/14 12:25:33;;;;;;;0.90;0.60;;;15.90;46.30;;;;;;4918203;29;20481;-76
2022/03/14 12:28:24;;;;;;;1.10;0.60;;;15.80;46.50;;;;;;4918082;29;20440;-76
2022/03/14 12:30:52;;;;;;;0.90;0.60;;;15.70;47.10;;;;;;4917241;29;20941;-76
2022/03/14 12:33:31;;;;;;;0.80;0.60;;;15.30;47.90;;;;;;4917624;29;20452;-76
2022/03/14 12:35:58;;;;;;;0.80;0.50;;;15.50;48.30;;;;;;4918230;29;20543;-76
2022/03/14 12:38:24;;;;;;;0.90;0.50;;;15.90;46.40;;;;;;4917763;29;20449;-80
2022/03/14 12:40:56;;;;;;;0.83;0.60;;;16.40;47.20;;;;;;4917993;29;20497;-76
2022/03/14 12:43:28;;;;;;;0.90;0.67;;;16.40;46.40;;;;;;4917937;29;20437;-75
2022/03/14 12:45:57;;;;;;;0.80;0.60;;;16.70;47.30;;;;;;4916909;29;20484;-73
2022/03/14 12:48:26;;;;;;;0.80;0.60;;;16.70;47.00;;;;;;4916839;29;20484;-76
2022/03/14 12:50:58;;;;;;;0.80;0.60;;;17.20;46.50;;;;;;4916844;29;20456;-77
2022/03/14 12:53:43;;;;;;;0.80;0.50;;;17.80;45.20;;;;;;4916516;29;21015;-76
2022/03/14 12:56:16;;;;;;;0.90;0.60;;;18.20;43.10;;;;;;4916661;29;20445;-77
2022/03/14 12:58:59;;;;;;;1.03;0.70;;;18.40;43.00;;;;;;4919480;29;20448;-76
2022/03/14 13:01:27;;;;;;;0.90;0.60;;;17.00;43.50;;;;;;4920465;29;20425;-76
2022/03/14 13:03:55;;;;;;;0.80;0.50;;;16.80;44.90;;;;;;4920045;29;20549;-77
2022/03/14 13:06:40;;;;;;;0.90;0.60;;;17.10;44.60;;;;;;4920014;29;20452;-76
2022/03/14 13:09:07;;;;;;;0.80;0.60;;;17.50;45.40;;;;;;4920042;29;20984;-77
2022/03/14 13:11:38;;;;;;;1.10;0.50;;;17.70;44.10;;;;;;4920127;29;20485;-77
2022/03/14 13:14:09;;;;;;;0.90;0.60;;;17.80;43.30;;;;;;4919879;29;20484;-77
2022/03/14 13:16:38;;;;;;;0.80;0.50;;;18.00;43.00;;;;;;4920137;29;20440;-75
2022/03/14 13:19:14;;;;;;;0.80;0.60;;;18.50;42.70;;;;;;4919929;29;20452;-77
2022/03/14 13:21:40;;;;;;;0.80;0.60;;;18.60;41.20;;;;;;4920023;29;20452;-77
2022/03/14 13:24:07;;;;;;;0.90;0.60;;;18.70;41.80;;;;;;4919855;29;20468;-77
2022/03/14 13:26:35;;;;;;;0.80;0.60;;;19.10;40.70;;;;;;4919833;29;20461;-76
2022/03/14 13:29:04;;;;;;;0.80;0.60;;;19.20;40.20;;;;;;4919715;29;20452;-76
2022/03/14 13:31:34;;;;;;;0.80;0.50;;;19.00;40.40;;;;;;4919665;29;20461;-77
2022/03/14 13:34:02;;;;;;;0.80;0.60;;;19.10;41.00;;;;;;4919427;29;21063;-77
2022/03/14 13:36:34;;;;;;;0.80;0.60;;;19.30;40.90;;;;;;4919739;29;20452;-77
2022/03/14 13:39:02;;;;;;;0.80;0.53;;;19.10;39.60;;;;;;4919678;29;20489;-77
2022/03/14 13:41:30;;;;;;;0.80;0.50;;;18.70;40.30;;;;;;4919410;29;20492;-76
2022/03/14 13:43:58;;;;;;;0.80;0.60;;;18.60;41.30;;;;;;4919386;29;20530;-77
2022/03/14 13:46:29;;;;;;;0.80;0.60;;;18.60;41.10;;;;;;4919383;29;20461;-77
2022/03/14 13:49:00;;;;;;;0.80;0.60;;;18.80;41.10;;;;;;4919355;29;20787;-77
2022/03/14 13:51:30;;;;;;;0.90;0.60;;;19.20;40.80;;;;;;4919434;29;20786;-77
2022/03/14 13:54:03;;;;;;;0.90;0.60;;;19.40;41.60;;;;;;4919248;29;20484;-78
2022/03/14 13:56:33;;;;;;;0.87;0.60;;;19.80;41.20;;;;;;4919364;29;20441;-78
2022/03/14 13:58:59;;;;;;;0.80;0.60;;;20.10;39.90;;;;;;4919381;29;20521;-77
2022/03/14 14:01:43;;;;;;;0.90;0.60;;;20.50;40.10;;;;;;4918872;29;20485;-77
2022/03/14 14:04:24;;;;;;;0.80;0.50;;;21.00;39.00;;;;;;4919065;29;20472;-77
2022/03/14 14:06:56;;;;;;;0.90;0.60;;;21.50;38.80;;;;;;4919279;29;20465;-78
2022/03/14 14:09:31;;;;;;;0.90;0.67;;;22.10;37.70;;;;;;4918921;29;20952;-78
2022/03/14 14:11:59;;;;;;;0.80;0.50;;;22.70;36.40;;;;;;4919177;29;20432;-78
2022/03/14 14:14:27;;;;;;;0.80;0.60;;;23.40;35.40;;;;;;4918761;29;20606;-77
2022/03/14 14:16:54;;;;;;;0.90;0.70;;;24.20;34.70;;;;;;4918995;29;20838;-77
2022/03/14 14:19:24;;;;;;;0.80;0.60;;;26.10;32.10;;;;;;4919365;29;20465;-77
2022/03/14 14:21:55;;;;;;;1.00;0.60;;;27.90;30.90;;;;;;4919102;29;20445;-78
2022/03/14 14:24:23;;;;;;;0.87;0.60;;;29.50;28.50;;;;;;4918788;29;20473;-77
2022/03/14 14:26:50;;;;;;;0.83;0.50;;;30.50;27.30;;;;;;4919036;29;20524;-77
2022/03/14 14:29:44;;;;;;;1.00;0.60;;;31.60;26.60;;;;;;4919978;29;20457;-79
2022/03/14 14:32:15;;;;;;;1.00;0.60;;;31.60;25.30;;;;;;4918663;29;20853;-78
2022/03/14 14:34:43;;;;;;;0.87;0.57;;;31.50;26.80;;;;;;4920213;29;20985;-79
2022/03/14 14:37:10;;;;;;;0.83;0.57;;;31.40;26.90;;;;;;4919887;29;20444;-78
2022/03/14 14:39:37;;;;;;;0.90;0.60;;;31.60;27.30;;;;;;4920178;29;20543;-78
2022/03/14 14:42:08;;;;;;;1.20;0.60;;;32.30;26.40;;;;;;4918681;29;20504;-78
2022/03/14 14:44:35;;;;;;;1.47;0.70;;;32.70;26.00;;;;;;4918437;29;20536;-78
2022/03/14 14:47:04;;;;;;;1.10;0.70;;;32.80;25.80;;;;;;4918570;29;20807;-78
2022/03/14 14:49:31;;;;;;;0.90;0.60;;;32.80;25.80;;;;;;4918149;29;21039;-77
2022/03/14 14:51:59;;;;;;;0.90;0.60;;;32.00;26.70;;;;;;4918622;29;20540;-78
2022/03/14 14:54:26;;;;;;;0.90;0.60;;;31.80;26.60;;;;;;4918534;29;20476;-78
2022/03/14 14:56:53;;;;;;;0.90;0.60;;;31.50;27.10;;;;;;4919346;29;20512;-78
2022/03/14 14:59:20;;;;;;;1.00;0.70;;;31.40;27.40;;;;;;4920393;29;20456;-79
2022/03/14 15:01:47;;;;;;;1.20;0.70;;;31.60;27.10;;;;;;4921428;29;20583;-79
2022/03/14 15:04:14;;;;;;;1.10;1.00;;;31.10;27.40;;;;;;4918640;29;20473;-78
2022/03/14 15:06:41;;;;;;;1.00;0.60;;;31.30;27.60;;;;;;4920954;29;20949;-78
2022/03/14 15:09:09;;;;;;;1.30;0.70;;;31.70;26.80;;;;;;4921680;29;20457;-79
2022/03/14 15:11:38;;;;;;;0.87;0.60;;;31.50;26.90;;;;;;4922212;29;20508;-78
2022/03/14 15:14:06;;;;;;;1.00;0.70;;;31.20;27.10;;;;;;4924854;29;20485;-80
2022/03/14 15:16:32;;;;;;;1.00;0.70;;;30.70;27.50;;;;;;4921068;29;20594;-79
2022/03/14 15:19:01;;;;;;;0.90;0.60;;;30.20;28.30;;;;;;4918550;29;20504;-79
2022/03/14 15:21:28;;;;;;;0.90;0.60;;;30.00;28.30;;;;;;4923768;29;20488;-79
2022/03/14 15:23:55;;;;;;;0.90;0.60;;;29.80;28.40;;;;;;4925419;29;20480;-79
2022/03/14 15:26:27;;;;;;;0.90;0.60;;;29.60;28.30;;;;;;4922300;29;20452;-79
2022/03/14 15:28:54;;;;;;;0.90;0.60;;;30.00;28.30;;;;;;4926091;29;20488;-80
2022/03/14 15:31:21;;;;;;;0.87;0.53;;;29.70;28.00;;;;;;4927080;29;20457;-80
2022/03/14 15:33:48;;;;;;;1.00;0.60;;;29.50;28.60;;;;;;4922193;29;20484;-78
2022/03/14 15:36:15;;;;;;;0.90;0.60;;;28.30;29.40;;;;;;4918153;29;20524;-78
2022/03/14 15:38:41;;;;;;;0.90;0.60;;;27.30;30.70;;;;;;4922468;29;20485;-80
2022/03/14 15:41:08;;;;;;;0.90;0.70;;;25.70;32.50;;;;;;4921761;29;20493;-79
2022/03/14 15:43:36;;;;;;;1.10;0.70;;;24.70;33.50;;;;;;4921623;29;20540;-79
2022/03/14 15:46:06;;;;;;;0.80;0.50;;;24.10;34.40;;;;;;4921867;29;20860;-79
2022/03/14 15:48:33;;;;;;;0.90;0.60;;;23.70;34.90;;;;;;4919629;29;20456;-78
2022/03/14 15:51:00;;;;;;;1.00;0.70;;;23.20;35.70;;;;;;4918468;29;20452;-79
2022/03/14 15:53:27;;;;;;;0.90;0.60;;;22.60;36.60;;;;;;4918799;29;20527;-78
2022/03/14 15:55:54;;;;;;;1.00;0.80;;;21.70;38.10;;;;;;4917826;29;20508;-78
2022/03/14 15:58:20;;;;;;;0.90;0.63;;;21.10;39.00;;;;;;4917902;29;20459;-78
2022/03/14 16:00:48;;;;;;;0.90;0.60;;;19.90;40.60;;;;;;4918173;29;20484;-78
2022/03/14 16:03:15;;;;;;;0.90;0.60;;;19.30;41.80;;;;;;4917292;29;20456;-78
2022/03/14 16:05:44;;;;;;;1.23;0.60;;;18.90;42.40;;;;;;4917481;29;20459;-79
2022/03/14 16:08:11;;;;;;;0.90;0.60;;;18.50;43.00;;;;;;4917606;29;20460;-78
2022/03/14 16:10:37;;;;;;;0.93;0.63;;;17.90;43.70;;;;;;4917161;29;20945;-78
2022/03/14 16:13:04;;;;;;;1.03;0.60;;;17.20;45.40;;;;;;4917050;29;20925;-78
2022/03/14 16:15:31;;;;;;;0.87;0.57;;;16.90;45.90;;;;;;5016820;23;20500;-73
2022/03/14 16:17:59;;;;;;;0.80;0.60;;;16.80;46.30;;;;;;4916951;29;20524;-73
2022/03/14 16:20:26;;;;;;;0.80;0.60;;;16.70;46.50;;;;;;4916369;29;20484;-74
2022/03/14 16:22:54;;;;;;;1.03;0.70;;;16.40;47.30;;;;;;4916874;29;20515;-74
2022/03/14 16:25:20;;;;;;;1.00;0.63;;;16.30;47.50;;;;;;4916430;29;20851;-74
2022/03/14 16:27:47;;;;;;;1.70;0.60;;;16.50;47.20;;;;;;4916810;29;20509;-73
2022/03/14 16:30:14;;;;;;;0.80;0.50;;;16.50;47.00;;;;;;4916772;29;20463;-75
2022/03/14 16:32:40;;;;;;;0.80;0.60;;;16.60;46.90;;;;;;4920088;29;20860;-73
2022/03/14 16:35:09;;;;;;;1.37;0.60;;;16.60;46.70;;;;;;4920543;29;20472;-73
2022/03/14 16:37:36;;;;;;;0.90;0.60;;;16.50;47.10;;;;;;4920518;29;20452;-74
2022/03/14 16:40:03;;;;;;;0.90;0.60;;;16.40;47.20;;;;;;4920624;29;20464;-75
2022/03/14 16:42:30;;;;;;;1.00;0.60;;;16.30;47.30;;;;;;4920160;29;20987;-73
2022/03/14 16:44:57;;;;;;;1.00;0.70;;;15.90;48.20;;;;;;4920388;29;20559;-75
2022/03/14 16:47:24;;;;;;;1.10;0.60;;;15.80;48.40;;;;;;4920364;29;20452;-74
2022/03/14 16:49:50;;;;;;;0.90;0.60;;;15.80;48.70;;;;;;4920383;29;20500;-74
2022/03/14 16:52:18;;;;;;;0.90;0.60;;;15.90;48.60;;;;;;4920250;29;20444;-74
2022/03/14 16:54:45;;;;;;;0.87;0.63;;;15.90;48.70;;;;;;4920374;29;20515;-73